Lenghu, China
Current Conditions -  °F | °C
As of 7:30 PM on Thursday 23 Oct 2014 (Local Time) from ZWWW Reporting Station
Clear Clear  
Wind Chill: 61°   Ceiling: Unl
Heat Index: 61°   Visibility: 4mi
Dew Point: 39°   Wind: 4mph
Humidity: 45%   Direction: 250°WSW
Pressure: 29.88"   Gusts: NA
Location:  38.83°N, 93.38°E
Report Text: ZWWW 231130Z 25002MPS 6000 NSC 16/04 Q1012 NOSIG
Loading
Personal Weather Stations






























Interactive Weather Map
Tropical Storm Tracking
New forecast layout! Learn more

10-Day Weather Forecast

Advertisements
Track Severe Weather on mobile